Galvin, Washington
Current Conditions -  °F | °C
As of 10:15 PM on Thursday 18 Dec 2014 (Local Time) from KCLS Reporting Station
Light Rain Light Rain  
Wind Chill: 50°   Ceiling: 5000
Heat Index: 50°   Visibility: 10mi
Dew Point: 48°   Wind: 5mph
Humidity: 94%   Direction: 210°SSW
Pressure: 29.77"   Gusts: NA
Location:  46.74°N, 123.03°W
Report Text: KCLS 190615Z AUTO 21004KT 10SM -RA FEW040 OVC050 10/09 A2977 RMK AO2
Loading
Personal Weather Stations






























Interactive Weather Map New forecast layout! Learn more

10-Day Weather Forecast

Advertisements
Track Severe Weather on mobile